Time;durP1;ratioP1;P1;durP2;ratioP2;P2;SDS_P1;SDS_P2;PMS_P1;PMS_P2;Temp;Humidity;BMP_temperature;BMP_pressure;BME280_temperature;BME280_humidity;BME280_pressure;Samples;Min_cycle;Max_cycle;Signal;HPM_P1;HPM_P2
2022/07/01 00:00:24;;;;;;;;;0.33;0.33;;;;;;;;4944175;28;8798;-81
2022/07/01 00:02:51;;;;;;;;;1.00;1.00;;;;;;;;4944482;28;9181;-81
2022/07/01 00:05:20;;;;;;;;;0.00;0.00;;;;;;;;4943326;28;8874;-81
2022/07/01 00:07:47;;;;;;;;;3.00;1.00;;;;;;;;4945060;28;9063;-81
2022/07/01 00:10:15;;;;;;;;;1.00;1.00;;;;;;;;4946435;28;9059;-81
2022/07/01 00:12:43;;;;;;;;;2.00;0.00;;;;;;;;4944898;28;9061;-81
2022/07/01 00:15:11;;;;;;;;;1.00;1.00;;;;;;;;4948657;28;9053;-80
2022/07/01 00:17:39;;;;;;;;;0.33;0.33;;;;;;;;4944985;28;9199;-80
2022/07/01 00:20:08;;;;;;;;;1.67;1.00;;;;;;;;4946456;28;9346;-79
2022/07/01 00:22:37;;;;;;;;;0.00;0.00;;;;;;;;4943956;28;9219;-81
2022/07/01 00:25:06;;;;;;;;;4.00;1.00;;;;;;;;4944831;28;9111;-82
2022/07/01 00:27:35;;;;;;;;;2.67;1.67;;;;;;;;4942784;28;9296;-81
2022/07/01 00:30:02;;;;;;;;;1.67;1.00;;;;;;;;4942338;28;9312;-81
2022/07/01 00:32:30;;;;;;;;;3.33;0.67;;;;;;;;4928336;28;9170;-83
2022/07/01 00:34:57;;;;;;;;;1.33;1.33;;;;;;;;4944563;28;10030;-81
2022/07/01 00:37:24;;;;;;;;;1.00;1.00;;;;;;;;4945408;28;9359;-80
2022/07/01 00:39:53;;;;;;;;;2.33;1.00;;;;;;;;4938868;28;9281;-81
2022/07/01 00:42:20;;;;;;;;;0.67;0.67;;;;;;;;4944723;28;9228;-80
2022/07/01 00:44:47;;;;;;;;;1.00;1.00;;;;;;;;4940058;28;9091;-82
2022/07/01 00:47:15;;;;;;;;;1.00;1.00;;;;;;;;4943861;28;9109;-80
2022/07/01 00:49:42;;;;;;;;;1.00;1.00;;;;;;;;4945048;28;9332;-80
2022/07/01 00:52:11;;;;;;;;;0.33;0.33;;;;;;;;4944909;28;9481;-80
2022/07/01 00:54:39;;;;;;;;;0.67;0.67;;;;;;;;4942701;28;9303;-80
2022/07/01 00:57:12;;;;;;;;;0.00;0.00;;;;;;;;4944493;28;9919;-81
2022/07/01 00:59:40;;;;;;;;;1.00;1.00;;;;;;;;4945307;28;9211;-80
2022/07/01 01:02:09;;;;;;;;;1.67;1.00;;;;;;;;4944435;28;9227;-80
2022/07/01 01:04:37;;;;;;;;;2.00;2.00;;;;;;;;4925701;28;9207;-80
2022/07/01 01:07:05;;;;;;;;;1.00;1.00;;;;;;;;4940189;28;9334;-80
2022/07/01 01:09:33;;;;;;;;;2.00;2.00;;;;;;;;4943365;28;9142;-80
2022/07/01 01:12:01;;;;;;;;;0.00;0.00;;;;;;;;4944806;28;9402;-80
2022/07/01 01:14:30;;;;;;;;;0.00;0.00;;;;;;;;4944091;28;9199;-80
2022/07/01 01:16:57;;;;;;;;;0.00;0.00;;;;;;;;4942524;28;9407;-80
2022/07/01 01:19:24;;;;;;;;;0.00;0.00;;;;;;;;4945052;28;9267;-80
2022/07/01 01:21:53;;;;;;;;;2.00;0.00;;;;;;;;4941041;28;9357;-80
2022/07/01 01:24:20;;;;;;;;;1.00;1.00;;;;;;;;4943120;28;10055;-81
2022/07/01 01:26:47;;;;;;;;;1.00;1.00;;;;;;;;4941103;28;9352;-80
2022/07/01 01:29:15;;;;;;;;;1.00;1.00;;;;;;;;4943167;28;9216;-80
2022/07/01 01:31:42;;;;;;;;;1.00;1.00;;;;;;;;4942784;28;9232;-81
2022/07/01 01:34:09;;;;;;;;;1.67;1.00;;;;;;;;4943078;28;9340;-81
2022/07/01 01:36:37;;;;;;;;;3.00;1.67;;;;;;;;4943294;28;9283;-80
2022/07/01 01:39:09;;;;;;;;;1.00;1.00;;;;;;;;4944876;28;9284;-81
2022/07/01 01:41:36;;;;;;;;;1.00;1.00;;;;;;;;4945300;28;9444;-80
2022/07/01 01:44:04;;;;;;;;;0.00;0.00;;;;;;;;4943611;28;10061;-80
2022/07/01 01:46:31;;;;;;;;;1.00;1.00;;;;;;;;4941954;28;9250;-81
2022/07/01 01:48:58;;;;;;;;;1.00;0.00;;;;;;;;4943448;28;9393;-80
2022/07/01 01:51:26;;;;;;;;;1.00;1.00;;;;;;;;4925519;28;9197;-82
2022/07/01 01:53:53;;;;;;;;;1.00;1.00;;;;;;;;4942424;28;9308;-80
2022/07/01 01:56:22;;;;;;;;;4.67;2.67;;;;;;;;4942774;28;9492;-82
2022/07/01 01:58:49;;;;;;;;;0.00;0.00;;;;;;;;4944960;28;9435;-80
2022/07/01 02:01:18;;;;;;;;;1.67;1.67;;;;;;;;4941947;28;9248;-80
2022/07/01 02:03:47;;;;;;;;;2.67;1.00;;;;;;;;4943714;28;9313;-80
2022/07/01 02:06:16;;;;;;;;;1.00;1.00;;;;;;;;4941709;28;10269;-80
2022/07/01 02:08:44;;;;;;;;;1.33;1.33;;;;;;;;4942587;28;9317;-79
2022/07/01 02:11:11;;;;;;;;;1.00;1.00;;;;;;;;4926301;29;9266;-79
2022/07/01 02:13:40;;;;;;;;;0.00;0.00;;;;;;;;4944878;29;9228;-80
2022/07/01 02:16:08;;;;;;;;;1.00;1.00;;;;;;;;4942912;29;9288;-81
2022/07/01 02:18:35;;;;;;;;;2.33;1.67;;;;;;;;4940739;29;9310;-80
2022/07/01 02:21:03;;;;;;;;;1.00;1.00;;;;;;;;4943741;29;9275;-80
2022/07/01 02:23:30;;;;;;;;;1.00;1.00;;;;;;;;4944364;29;9401;-80
2022/07/01 02:25:57;;;;;;;;;1.00;1.00;;;;;;;;4939262;29;9209;-81
2022/07/01 02:28:25;;;;;;;;;1.33;1.33;;;;;;;;4943099;29;9305;-80
2022/07/01 02:30:53;;;;;;;;;1.00;1.00;;;;;;;;4944948;28;9295;-80
2022/07/01 02:33:21;;;;;;;;;1.00;1.00;;;;;;;;4943261;29;9268;-80
2022/07/01 02:35:48;;;;;;;;;3.00;3.00;;;;;;;;4940012;29;9340;-80
2022/07/01 02:38:16;;;;;;;;;1.33;1.33;;;;;;;;4926155;29;9212;-80
2022/07/01 02:40:43;;;;;;;;;2.33;2.00;;;;;;;;4941030;29;9130;-79
2022/07/01 02:43:11;;;;;;;;;3.67;2.00;;;;;;;;4944656;29;9205;-80
2022/07/01 02:45:39;;;;;;;;;3.67;2.00;;;;;;;;4943060;28;9235;-81
2022/07/01 02:48:08;;;;;;;;;4.00;1.33;;;;;;;;4938100;28;9133;-81
2022/07/01 02:50:36;;;;;;;;;3.00;3.00;;;;;;;;4930460;28;9120;-79
2022/07/01 02:53:03;;;;;;;;;2.00;2.00;;;;;;;;4947938;28;9269;-82
2022/07/01 02:55:31;;;;;;;;;2.33;2.33;;;;;;;;4945785;28;9230;-84
2022/07/01 02:57:58;;;;;;;;;2.00;2.00;;;;;;;;4947413;28;9313;-81
2022/07/01 03:00:25;;;;;;;;;4.00;4.00;;;;;;;;4947842;28;9067;-84
2022/07/01 03:02:53;;;;;;;;;3.00;2.00;;;;;;;;4943966;28;9202;-80
2022/07/01 03:05:22;;;;;;;;;3.67;2.00;;;;;;;;4946968;28;9294;-80
2022/07/01 03:07:49;;;;;;;;;3.00;3.00;;;;;;;;4945818;28;9125;-79
2022/07/01 03:10:16;;;;;;;;;3.33;3.33;;;;;;;;4946944;28;9224;-84
2022/07/01 03:12:44;;;;;;;;;2.00;2.00;;;;;;;;4947658;28;10141;-81
2022/07/01 03:15:13;;;;;;;;;3.00;3.00;;;;;;;;4942632;28;10012;-84
2022/07/01 03:17:41;;;;;;;;;1.33;1.33;;;;;;;;4943507;28;9464;-82
2022/07/01 03:20:11;;;;;;;;;4.00;2.67;;;;;;;;4946741;28;9338;-80
2022/07/01 03:22:40;;;;;;;;;2.00;2.00;;;;;;;;4946910;28;9295;-81
2022/07/01 03:25:09;;;;;;;;;3.00;3.00;;;;;;;;4945961;28;9286;-82
2022/07/01 03:27:36;;;;;;;;;2.00;2.00;;;;;;;;4942571;28;9995;-82
2022/07/01 03:30:05;;;;;;;;;3.00;3.00;;;;;;;;4943437;28;9448;-83
2022/07/01 03:32:33;;;;;;;;;2.33;2.00;;;;;;;;4943107;28;9453;-82
2022/07/01 03:35:35;;;;;;;;;5.67;1.33;;;;;;;;4929258;28;9359;-83
2022/07/01 03:37:50;;;;;;;;;3.00;3.00;;;;;;;;4930277;28;9364;-80
2022/07/01 03:40:17;;;;;;;;;3.00;3.00;;;;;;;;4929579;28;10068;-81
2022/07/01 03:42:44;;;;;;;;;1.00;1.00;;;;;;;;4946289;28;9368;-84
2022/07/01 03:45:12;;;;;;;;;2.67;2.67;;;;;;;;4943943;28;9437;-82
2022/07/01 03:47:39;;;;;;;;;1.33;1.33;;;;;;;;4943035;28;9332;-85
2022/07/01 03:50:08;;;;;;;;;7.25;3.25;;;;;;;;4944560;28;9407;-80
2022/07/01 03:52:35;;;;;;;;;2.00;1.00;;;;;;;;4947468;28;10494;-81
2022/07/01 03:55:03;;;;;;;;;2.25;2.25;;;;;;;;4942948;28;9441;-80
2022/07/01 03:57:30;;;;;;;;;4.00;2.75;;;;;;;;4946111;28;9615;-80
2022/07/01 03:59:57;;;;;;;;;2.50;2.50;;;;;;;;4945090;28;10310;-80
2022/07/01 04:02:25;;;;;;;;;1.75;1.75;;;;;;;;4945883;28;9531;-80
2022/07/01 04:04:52;;;;;;;;;1.00;1.00;;;;;;;;4945578;28;9569;-83
2022/07/01 04:07:19;;;;;;;;;3.25;3.25;;;;;;;;4938712;28;9594;-82
2022/07/01 04:09:47;;;;;;;;;3.75;2.25;;;;;;;;4946821;28;9488;-80
2022/07/01 04:12:16;;;;;;;;;2.33;2.33;;;;;;;;4945550;28;11090;-80
2022/07/01 04:14:43;;;;;;;;;3.25;3.00;;;;;;;;4913091;28;9453;-80
2022/07/01 04:17:10;;;;;;;;;2.00;2.00;;;;;;;;4944419;28;9463;-80
2022/07/01 04:19:38;;;;;;;;;4.00;2.75;;;;;;;;4943578;28;9628;-80
2022/07/01 04:24:50;;;;;;;;;2.75;2.75;;;;;;;;4943690;28;9586;-81
2022/07/01 04:27:19;;;;;;;;;4.00;4.00;;;;;;;;4943944;28;9572;-82
2022/07/01 04:29:49;;;;;;;;;6.25;6.25;;;;;;;;4955655;28;9612;-84
2022/07/01 04:32:16;;;;;;;;;8.00;4.00;;;;;;;;4944006;28;9528;-86
2022/07/01 04:34:44;;;;;;;;;5.25;3.50;;;;;;;;4942954;28;9571;-81
2022/07/01 04:37:11;;;;;;;;;7.25;5.25;;;;;;;;4945605;28;10295;-83
2022/07/01 04:39:39;;;;;;;;;5.75;4.00;;;;;;;;4945960;28;9689;-79
2022/07/01 04:42:05;;;;;;;;;4.50;4.50;;;;;;;;4942983;28;9765;-80
2022/07/01 04:44:35;;;;;;;;;4.50;4.00;;;;;;;;4939086;29;9507;-83
2022/07/01 04:47:04;;;;;;;;;0.33;0.33;;;;;;;;4938270;28;9666;-81
2022/07/01 04:49:32;;;;;;;;;4.00;4.00;;;;;;;;4945401;28;9441;-81
2022/07/01 04:52:00;;;;;;;;;8.75;7.00;;;;;;;;4942351;28;9360;-84
2022/07/01 04:54:27;;;;;;;;;6.50;6.50;;;;;;;;4925324;28;9668;-83
2022/07/01 04:56:55;;;;;;;;;6.00;6.00;;;;;;;;4927002;28;9601;-80
2022/07/01 04:59:22;;;;;;;;;5.75;5.75;;;;;;;;4943660;28;9581;-79
2022/07/01 05:01:51;;;;;;;;;3.75;3.75;;;;;;;;4925469;28;9739;-83
2022/07/01 05:04:19;;;;;;;;;6.00;6.00;;;;;;;;4923625;28;9796;-83
2022/07/01 05:06:46;;;;;;;;;7.50;7.50;;;;;;;;4928613;28;9734;-83
2022/07/01 05:09:14;;;;;;;;;7.00;3.50;;;;;;;;4939727;28;10971;-84
2022/07/01 05:11:41;;;;;;;;;6.50;6.50;;;;;;;;4945183;28;10801;-79
2022/07/01 05:14:08;;;;;;;;;7.50;6.00;;;;;;;;4943772;28;10028;-81
2022/07/01 05:16:36;;;;;;;;;6.00;6.00;;;;;;;;4945380;28;10069;-83
2022/07/01 05:22:01;;;;;;;;;17.75;9.75;;;;;;;;4939568;28;10128;-77
2022/07/01 05:24:31;;;;;;;;;11.75;11.75;;;;;;;;4937072;28;9968;-77
2022/07/01 05:26:59;;;;;;;;;8.50;8.50;;;;;;;;4927804;28;10117;-77
2022/07/01 05:29:26;;;;;;;;;9.00;9.00;;;;;;;;4940549;28;10708;-79
2022/07/01 05:31:54;;;;;;;;;14.25;11.75;;;;;;;;4938882;28;10678;-78
2022/07/01 05:34:23;;;;;;;;;11.25;11.25;;;;;;;;4924545;29;10071;-78
2022/07/01 05:36:50;;;;;;;;;13.00;10.50;;;;;;;;4934361;28;9915;-78
2022/07/01 05:39:17;;;;;;;;;12.50;10.00;;;;;;;;4938811;28;10395;-78
2022/07/01 05:41:45;;;;;;;;;12.75;12.75;;;;;;;;4944195;28;9897;-80
2022/07/01 05:44:12;;;;;;;;;10.00;8.50;;;;;;;;4941864;28;10223;-80
2022/07/01 05:46:40;;;;;;;;;9.75;9.25;;;;;;;;4937814;28;9849;-78
2022/07/01 05:49:07;;;;;;;;;17.50;12.25;;;;;;;;4942691;28;10553;-79
2022/07/01 05:51:36;;;;;;;;;13.00;10.00;;;;;;;;4945339;28;9905;-78
2022/07/01 05:54:03;;;;;;;;;11.00;8.75;;;;;;;;4923807;29;10019;-77
2022/07/01 05:56:31;;;;;;;;;12.00;12.00;;;;;;;;4940234;28;10024;-79
2022/07/01 05:58:58;;;;;;;;;16.25;13.25;;;;;;;;4939855;28;9962;-80
2022/07/01 06:01:26;;;;;;;;;13.50;13.00;;;;;;;;4939460;28;9593;-79
2022/07/01 06:03:53;;;;;;;;;9.75;9.75;;;;;;;;4943016;28;9771;-79
2022/07/01 06:06:20;;;;;;;;;16.50;12.75;;;;;;;;4941425;28;9590;-77
2022/07/01 06:08:49;;;;;;;;;9.75;9.50;;;;;;;;4942795;28;9649;-75
2022/07/01 06:11:17;;;;;;;;;11.00;10.00;;;;;;;;4938455;28;9641;-73
2022/07/01 06:13:44;;;;;;;;;11.00;9.25;;;;;;;;4942440;28;9587;-78
2022/07/01 06:16:11;;;;;;;;;10.25;8.50;;;;;;;;4942836;29;9522;-78
2022/07/01 06:18:38;;;;;;;;;10.67;9.00;;;;;;;;4942573;29;9507;-81
2022/07/01 06:21:05;;;;;;;;;9.33;8.00;;;;;;;;4948248;28;9322;-85
2022/07/01 06:23:33;;;;;;;;;12.00;9.00;;;;;;;;4948036;28;10003;-80
2022/07/01 06:26:02;;;;;;;;;11.00;11.00;;;;;;;;4945935;28;9312;-82
2022/07/01 06:28:30;;;;;;;;;10.67;10.67;;;;;;;;4945515;28;9184;-82
2022/07/01 06:30:58;;;;;;;;;9.00;9.00;;;;;;;;4943784;28;10601;-82
2022/07/01 06:33:29;;;;;;;;;10.00;8.33;;;;;;;;4927587;28;9040;-77
2022/07/01 06:35:56;;;;;;;;;9.67;8.00;;;;;;;;4946010;28;8980;-81
2022/07/01 06:38:24;;;;;;;;;10.00;8.67;;;;;;;;4945025;28;9030;-81
2022/07/01 06:43:34;;;;;;;;;7.67;5.00;;;;;;;;4946909;28;8978;-83
2022/07/01 06:46:02;;;;;;;;;6.33;6.33;;;;;;;;4944313;28;8967;-79
2022/07/01 06:48:29;;;;;;;;;9.33;7.67;;;;;;;;4928921;28;8969;-75
2022/07/01 06:50:57;;;;;;;;;5.75;5.00;;;;;;;;4944507;28;9835;-76
2022/07/01 06:53:24;;;;;;;;;8.50;8.00;;;;;;;;4945358;28;8904;-80
2022/07/01 06:55:51;;;;;;;;;5.75;5.75;;;;;;;;4945439;28;8889;-82
2022/07/01 06:58:18;;;;;;;;;5.75;5.75;;;;;;;;4944672;28;8879;-82
2022/07/01 07:00:47;;;;;;;;;5.75;5.75;;;;;;;;4942148;28;8806;-80
2022/07/01 07:03:14;;;;;;;;;8.00;5.75;;;;;;;;4943553;28;8893;-80
2022/07/01 07:05:42;;;;;;;;;9.50;8.75;;;;;;;;4944187;28;8855;-79
2022/07/01 07:08:09;;;;;;;;;11.00;9.25;;;;;;;;4945157;28;9722;-80
2022/07/01 07:10:37;;;;;;;;;6.00;5.25;;;;;;;;4945850;28;8886;-80
2022/07/01 07:13:05;;;;;;;;;7.25;7.25;;;;;;;;4945270;28;8867;-78
2022/07/01 07:15:32;;;;;;;;;7.75;6.00;;;;;;;;4947395;28;8878;-79
2022/07/01 07:18:01;;;;;;;;;8.75;6.00;;;;;;;;4945981;28;8894;-78
2022/07/01 07:20:28;;;;;;;;;7.75;5.50;;;;;;;;4945045;28;8973;-79
2022/07/01 07:22:55;;;;;;;;;6.00;5.00;;;;;;;;4946766;28;8894;-78
2022/07/01 07:25:23;;;;;;;;;5.50;4.00;;;;;;;;4944844;28;8887;-80
2022/07/01 07:27:50;;;;;;;;;4.00;4.00;;;;;;;;4944195;28;8903;-79
2022/07/01 07:30:17;;;;;;;;;1.25;1.25;;;;;;;;4944729;28;8974;-78
2022/07/01 07:32:45;;;;;;;;;2.00;2.00;;;;;;;;4944004;28;8877;-76
2022/07/01 07:35:14;;;;;;;;;3.75;3.75;;;;;;;;4940868;29;8881;-77
2022/07/01 07:37:42;;;;;;;;;3.25;2.75;;;;;;;;4937937;28;8904;-80
2022/07/01 07:40:12;;;;;;;;;3.00;3.00;;;;;;;;4943671;28;8955;-82
2022/07/01 07:42:40;;;;;;;;;2.25;2.25;;;;;;;;4941827;28;8885;-83
2022/07/01 07:45:08;;;;;;;;;1.00;1.00;;;;;;;;4941491;28;8903;-81
2022/07/01 07:47:36;;;;;;;;;1.50;1.50;;;;;;;;4945346;28;8874;-78
2022/07/01 07:50:04;;;;;;;;;1.50;1.50;;;;;;;;4940776;28;9761;-77
2022/07/01 07:52:33;;;;;;;;;1.00;1.00;;;;;;;;4943145;28;8873;-79
2022/07/01 07:55:02;;;;;;;;;1.25;1.25;;;;;;;;4940955;28;8901;-81
2022/07/01 07:57:29;;;;;;;;;1.50;1.50;;;;;;;;4946265;28;8859;-78
2022/07/01 07:59:56;;;;;;;;;1.75;1.75;;;;;;;;4944222;28;8911;-79
2022/07/01 08:02:23;;;;;;;;;2.25;1.00;;;;;;;;4946930;28;8854;-78
2022/07/01 08:04:51;;;;;;;;;1.75;0.75;;;;;;;;4943878;28;8915;-78
2022/07/01 08:07:18;;;;;;;;;0.75;0.75;;;;;;;;4945287;28;8895;-78
2022/07/01 08:09:49;;;;;;;;;1.50;1.00;;;;;;;;4939792;28;8992;-83
2022/07/01 08:12:19;;;;;;;;;0.50;0.50;;;;;;;;4929698;28;8920;-84
2022/07/01 08:14:48;;;;;;;;;0.00;0.00;;;;;;;;4933535;28;8862;-80
2022/07/01 08:17:17;;;;;;;;;1.00;1.00;;;;;;;;4931518;28;8876;-81
2022/07/01 08:19:50;;;;;;;;;0.00;0.00;;;;;;;;4930057;28;8897;-78
2022/07/01 08:22:24;;;;;;;;;1.50;0.00;;;;;;;;4934902;28;8911;-78
2022/07/01 08:24:54;;;;;;;;;0.25;0.25;;;;;;;;4935843;28;8878;-78
2022/07/01 08:27:22;;;;;;;;;1.00;1.00;;;;;;;;4921634;29;8902;-78
2022/07/01 08:29:50;;;;;;;;;1.00;1.00;;;;;;;;4931163;28;8873;-77
2022/07/01 08:32:18;;;;;;;;;1.00;1.00;;;;;;;;4929339;29;9014;-77
2022/07/01 08:34:47;;;;;;;;;0.00;0.00;;;;;;;;4908028;29;8919;-74
2022/07/01 08:37:14;;;;;;;;;0.75;0.00;;;;;;;;4935379;29;8890;-75
2022/07/01 08:39:42;;;;;;;;;0.75;0.75;;;;;;;;4910609;28;8928;-75
2022/07/01 08:42:11;;;;;;;;;0.00;0.00;;;;;;;;4927565;29;9760;-79
2022/07/01 08:44:41;;;;;;;;;0.00;0.00;;;;;;;;4921986;29;8884;-78
2022/07/01 08:47:14;;;;;;;;;0.00;0.00;;;;;;;;4910846;29;8888;-76
2022/07/01 08:49:42;;;;;;;;;0.00;0.00;;;;;;;;4922276;29;8888;-76
2022/07/01 08:52:14;;;;;;;;;0.00;0.00;;;;;;;;4924863;29;8887;-76
2022/07/01 08:54:42;;;;;;;;;1.00;1.00;;;;;;;;4925187;29;8896;-77
2022/07/01 08:57:12;;;;;;;;;0.80;0.00;;;;;;;;4913872;29;8913;-76
2022/07/01 08:59:40;;;;;;;;;0.00;0.00;;;;;;;;4910649;29;8876;-77
2022/07/01 09:02:07;;;;;;;;;0.00;0.00;;;;;;;;4906488;29;8951;-76
2022/07/01 09:04:46;;;;;;;;;0.00;0.00;;;;;;;;4918571;28;8889;-76
2022/07/01 09:07:14;;;;;;;;;2.00;0.00;;;;;;;;4924712;28;8907;-76
2022/07/01 09:09:43;;;;;;;;;1.60;1.60;;;;;;;;4932214;28;8925;-76
2022/07/01 09:12:13;;;;;;;;;0.00;0.00;;;;;;;;4940518;28;8869;-76
2022/07/01 09:14:42;;;;;;;;;0.00;0.00;;;;;;;;4917352;28;8932;-76
2022/07/01 09:17:09;;;;;;;;;0.00;0.00;;;;;;;;4941326;28;8907;-76
2022/07/01 09:19:38;;;;;;;;;0.00;0.00;;;;;;;;4942003;28;8873;-75
2022/07/01 09:22:06;;;;;;;;;0.00;0.00;;;;;;;;4945126;28;8907;-75
2022/07/01 09:24:35;;;;;;;;;0.00;0.00;;;;;;;;4928036;28;8874;-75
2022/07/01 09:27:09;;;;;;;;;0.00;0.00;;;;;;;;4942458;28;8901;-74
2022/07/01 09:29:38;;;;;;;;;0.00;0.00;;;;;;;;4943372;28;8857;-76
2022/07/01 09:32:07;;;;;;;;;0.00;0.00;;;;;;;;4943234;28;8851;-75
2022/07/01 09:34:35;;;;;;;;;0.00;0.00;;;;;;;;4941649;28;8923;-76
2022/07/01 09:37:07;;;;;;;;;0.80;0.80;;;;;;;;4941444;28;8867;-75
2022/07/01 09:39:44;;;;;;;;;0.20;0.20;;;;;;;;4939755;28;8874;-75
2022/07/01 09:42:13;;;;;;;;;0.00;0.00;;;;;;;;4933520;28;8898;-73
2022/07/01 09:44:55;;;;;;;;;0.00;0.00;;;;;;;;4937928;28;9021;-74
2022/07/01 09:47:26;;;;;;;;;0.00;0.00;;;;;;;;4939909;28;8927;-74
2022/07/01 09:49:57;;;;;;;;;2.00;0.00;;;;;;;;4936632;28;9060;-78
2022/07/01 09:52:28;;;;;;;;;2.20;0.00;;;;;;;;4934881;28;8893;-75
2022/07/01 09:54:56;;;;;;;;;0.00;0.00;;;;;;;;4939753;28;8877;-75
2022/07/01 09:57:26;;;;;;;;;0.40;0.40;;;;;;;;4944202;28;8926;-75
2022/07/01 09:59:55;;;;;;;;;0.60;0.60;;;;;;;;4939428;28;8895;-77
2022/07/01 10:02:24;;;;;;;;;0.00;0.00;;;;;;;;4941956;28;8891;-78
2022/07/01 10:04:55;;;;;;;;;0.00;0.00;;;;;;;;4912762;28;9002;-74
2022/07/01 10:07:33;;;;;;;;;0.00;0.00;;;;;;;;4938795;28;8895;-76
2022/07/01 10:10:29;;;;;;;;;0.00;0.00;;;;;;;;4941565;28;8977;-79
2022/07/01 10:12:56;;;;;;;;;0.00;0.00;;;;;;;;4942179;28;8869;-77
2022/07/01 10:15:26;;;;;;;;;0.00;0.00;;;;;;;;4943958;28;8873;-74
2022/07/01 10:17:53;;;;;;;;;0.00;0.00;;;;;;;;4941881;29;8923;-76
2022/07/01 10:20:25;;;;;;;;;0.00;0.00;;;;;;;;4943632;29;8881;-75
2022/07/01 10:23:02;;;;;;;;;0.00;0.00;;;;;;;;4943039;29;9665;-76
2022/07/01 10:25:41;;;;;;;;;0.00;0.00;;;;;;;;4937994;29;8888;-75
2022/07/01 10:28:24;;;;;;;;;0.00;0.00;;;;;;;;4939132;29;8888;-75
2022/07/01 10:31:15;;;;;;;;;0.00;0.00;;;;;;;;4940754;29;8834;-76
2022/07/01 10:33:47;;;;;;;;;0.00;0.00;;;;;;;;4940941;29;8870;-76
2022/07/01 10:36:17;;;;;;;;;0.00;0.00;;;;;;;;4941734;28;8883;-76
2022/07/01 10:39:27;;;;;;;;;0.00;0.00;;;;;;;;4940537;29;10172;-75
2022/07/01 10:42:05;;;;;;;;;0.00;0.00;;;;;;;;4942250;29;8881;-76
2022/07/01 10:44:36;;;;;;;;;0.00;0.00;;;;;;;;4939444;29;8941;-73
2022/07/01 10:47:07;;;;;;;;;0.00;0.00;;;;;;;;4935470;29;8881;-73
2022/07/01 10:49:55;;;;;;;;;0.00;0.00;;;;;;;;4924594;29;8865;-74
2022/07/01 10:52:23;;;;;;;;;0.00;0.00;;;;;;;;4938239;29;8881;-75
2022/07/01 10:54:53;;;;;;;;;0.00;0.00;;;;;;;;4940604;29;8892;-74
2022/07/01 10:57:30;;;;;;;;;0.00;0.00;;;;;;;;4944605;29;8948;-75
2022/07/01 11:00:13;;;;;;;;;0.00;0.00;;;;;;;;4939589;29;9792;-75
2022/07/01 11:02:42;;;;;;;;;0.00;0.00;;;;;;;;4936044;29;9592;-78
2022/07/01 11:05:11;;;;;;;;;0.60;0.00;;;;;;;;4940790;29;9016;-77
2022/07/01 11:07:42;;;;;;;;;0.00;0.00;;;;;;;;4939926;28;8878;-76
2022/07/01 11:10:10;;;;;;;;;2.40;0.00;;;;;;;;4941460;28;8842;-78
2022/07/01 11:12:38;;;;;;;;;0.00;0.00;;;;;;;;4941321;28;8916;-77
2022/07/01 11:15:07;;;;;;;;;0.60;0.60;;;;;;;;4946669;28;9242;-78
2022/07/01 11:17:35;;;;;;;;;0.00;0.00;;;;;;;;4943988;28;8864;-80
2022/07/01 11:20:04;;;;;;;;;1.60;1.00;;;;;;;;4942649;28;8866;-77
2022/07/01 11:22:35;;;;;;;;;0.00;0.00;;;;;;;;4944428;28;8871;-79
2022/07/01 11:25:05;;;;;;;;;0.40;0.00;;;;;;;;4944459;28;9770;-79
2022/07/01 11:27:34;;;;;;;;;0.00;0.00;;;;;;;;4940276;28;8926;-76
2022/07/01 11:30:04;;;;;;;;;0.00;0.00;;;;;;;;4945886;28;8967;-76
2022/07/01 11:32:33;;;;;;;;;0.00;0.00;;;;;;;;4927220;28;8807;-76
2022/07/01 11:39:21;;;;;;;;;0.20;0.20;;;;;;;;4944533;28;8855;-77
2022/07/01 11:40:36;;;;;;;;;0.00;0.00;;;;;;;;4946260;28;8838;-78
2022/07/01 11:43:05;;;;;;;;;0.00;0.00;;;;;;;;4922344;28;8906;-77
2022/07/01 11:45:32;;;;;;;;;0.00;0.00;;;;;;;;4945700;28;8839;-76
2022/07/01 11:48:00;;;;;;;;;0.60;0.60;;;;;;;;4926437;28;9030;-76
2022/07/01 11:50:28;;;;;;;;;0.00;0.00;;;;;;;;4943407;28;8945;-77
2022/07/01 11:52:56;;;;;;;;;0.00;0.00;;;;;;;;4945309;28;8899;-75
2022/07/01 11:55:23;;;;;;;;;0.00;0.00;;;;;;;;4944223;28;8912;-80
2022/07/01 11:57:52;;;;;;;;;0.00;0.00;;;;;;;;4943679;28;9750;-79
2022/07/01 12:00:21;;;;;;;;;0.20;0.00;;;;;;;;4945128;28;9667;-77
2022/07/01 12:02:51;;;;;;;;;0.00;0.00;;;;;;;;4927228;28;8849;-79
2022/07/01 12:05:19;;;;;;;;;0.40;0.00;;;;;;;;4944194;28;8874;-76
2022/07/01 12:07:48;;;;;;;;;0.00;0.00;;;;;;;;4929081;28;8905;-81
2022/07/01 12:10:16;;;;;;;;;0.00;0.00;;;;;;;;4937690;28;8895;-77
2022/07/01 12:12:45;;;;;;;;;0.00;0.00;;;;;;;;4933603;28;8918;-79
2022/07/01 12:15:15;;;;;;;;;0.40;0.40;;;;;;;;4932110;28;8884;-79
2022/07/01 12:17:42;;;;;;;;;0.00;0.00;;;;;;;;4938791;28;8922;-79
2022/07/01 12:20:10;;;;;;;;;0.00;0.00;;;;;;;;4926294;29;8893;-79
2022/07/01 12:22:38;;;;;;;;;1.00;0.00;;;;;;;;4929976;28;8880;-79
2022/07/01 12:25:11;;;;;;;;;0.00;0.00;;;;;;;;4916254;28;8903;-78
2022/07/01 12:27:40;;;;;;;;;0.00;0.00;;;;;;;;4914331;28;8950;-79
2022/07/01 12:30:10;;;;;;;;;0.20;0.00;;;;;;;;4916761;28;8877;-82
2022/07/01 12:32:39;;;;;;;;;0.00;0.00;;;;;;;;4930577;28;8914;-79
2022/07/01 12:35:33;;;;;;;;;0.00;0.00;;;;;;;;4932002;29;9037;-80
2022/07/01 12:37:55;;;;;;;;;0.00;0.00;;;;;;;;4927175;28;8867;-81
2022/07/01 12:40:27;;;;;;;;;0.00;0.00;;;;;;;;4936253;28;8912;-79
2022/07/01 12:42:55;;;;;;;;;0.00;0.00;;;;;;;;4904640;29;9003;-83
2022/07/01 12:45:24;;;;;;;;;0.00;0.00;;;;;;;;4916457;29;8883;-77
2022/07/01 12:47:53;;;;;;;;;0.00;0.00;;;;;;;;4928460;29;9002;-76
2022/07/01 12:50:22;;;;;;;;;0.00;0.00;;;;;;;;4919303;29;8884;-76
2022/07/01 12:53:00;;;;;;;;;0.00;0.00;;;;;;;;4924586;29;8927;-76
2022/07/01 12:55:32;;;;;;;;;0.00;0.00;;;;;;;;4914705;29;8875;-76
2022/07/01 12:58:00;;;;;;;;;0.00;0.00;;;;;;;;4926265;29;8879;-75
2022/07/01 13:00:28;;;;;;;;;0.00;0.00;;;;;;;;4932419;28;8811;-75
2022/07/01 13:02:57;;;;;;;;;0.00;0.00;;;;;;;;4929480;29;8891;-76
2022/07/01 13:05:25;;;;;;;;;0.00;0.00;;;;;;;;4918812;29;8873;-75
2022/07/01 13:07:52;;;;;;;;;0.00;0.00;;;;;;;;4923511;29;8891;-75
2022/07/01 13:10:20;;;;;;;;;0.00;0.00;;;;;;;;4924301;29;8908;-75
2022/07/01 13:12:49;;;;;;;;;0.00;0.00;;;;;;;;4920442;29;8852;-75
2022/07/01 13:15:18;;;;;;;;;0.00;0.00;;;;;;;;4924649;29;8864;-75
2022/07/01 13:17:46;;;;;;;;;0.00;0.00;;;;;;;;4927945;29;8911;-75
2022/07/01 13:20:15;;;;;;;;;0.00;0.00;;;;;;;;4921870;29;8965;-77
2022/07/01 13:22:42;;;;;;;;;0.60;0.00;;;;;;;;4927176;29;10221;-76
2022/07/01 13:25:11;;;;;;;;;0.00;0.00;;;;;;;;4925094;29;8994;-76
2022/07/01 13:27:39;;;;;;;;;0.00;0.00;;;;;;;;4922681;29;8907;-75
2022/07/01 13:30:10;;;;;;;;;0.00;0.00;;;;;;;;4922240;28;9297;-76
2022/07/01 13:32:39;;;;;;;;;0.00;0.00;;;;;;;;4924543;29;8896;-76
2022/07/01 13:35:07;;;;;;;;;0.00;0.00;;;;;;;;4929314;28;8872;-75
2022/07/01 13:37:34;;;;;;;;;0.00;0.00;;;;;;;;4926762;29;8875;-76
2022/07/01 13:40:02;;;;;;;;;0.00;0.00;;;;;;;;4925242;29;8918;-76
2022/07/01 13:42:29;;;;;;;;;0.00;0.00;;;;;;;;4925188;29;8899;-76
2022/07/01 13:44:56;;;;;;;;;0.00;0.00;;;;;;;;4922800;29;8922;-75
2022/07/01 13:47:26;;;;;;;;;0.00;0.00;;;;;;;;4909305;29;8872;-75
2022/07/01 13:49:53;;;;;;;;;0.00;0.00;;;;;;;;4924875;29;8887;-76
2022/07/01 13:52:21;;;;;;;;;0.00;0.00;;;;;;;;4926446;29;8883;-76
2022/07/01 13:54:49;;;;;;;;;1.00;0.00;;;;;;;;4923482;29;8902;-76
2022/07/01 13:57:16;;;;;;;;;0.00;0.00;;;;;;;;4908908;29;8883;-76
2022/07/01 13:59:44;;;;;;;;;0.00;0.00;;;;;;;;4925059;29;8884;-76
2022/07/01 14:02:11;;;;;;;;;0.00;0.00;;;;;;;;4924510;29;8821;-75
2022/07/01 14:04:40;;;;;;;;;0.00;0.00;;;;;;;;4926125;29;8929;-74
2022/07/01 14:07:08;;;;;;;;;0.00;0.00;;;;;;;;4925706;29;8937;-75
2022/07/01 14:09:36;;;;;;;;;0.00;0.00;;;;;;;;4925991;29;8988;-75
2022/07/01 14:12:03;;;;;;;;;0.00;0.00;;;;;;;;4923838;29;8990;-76
2022/07/01 14:14:31;;;;;;;;;0.00;0.00;;;;;;;;4924687;29;9719;-76
2022/07/01 14:16:59;;;;;;;;;0.00;0.00;;;;;;;;4924538;29;8890;-76
2022/07/01 14:19:27;;;;;;;;;0.00;0.00;;;;;;;;4925549;29;8972;-76
2022/07/01 14:21:59;;;;;;;;;0.00;0.00;;;;;;;;4925766;29;8884;-76
2022/07/01 14:24:26;;;;;;;;;0.00;0.00;;;;;;;;4903388;29;8899;-75
2022/07/01 14:26:54;;;;;;;;;0.00;0.00;;;;;;;;4925136;29;8960;-76
2022/07/01 14:29:21;;;;;;;;;0.00;0.00;;;;;;;;4924640;29;8899;-75
2022/07/01 14:31:48;;;;;;;;;0.00;0.00;;;;;;;;4924552;29;8848;-75
2022/07/01 14:34:16;;;;;;;;;0.00;0.00;;;;;;;;4924764;29;9667;-75
2022/07/01 14:36:43;;;;;;;;;0.00;0.00;;;;;;;;4925168;29;8905;-76
2022/07/01 14:39:12;;;;;;;;;0.00;0.00;;;;;;;;4904807;29;9078;-76
2022/07/01 14:41:39;;;;;;;;;0.00;0.00;;;;;;;;4909207;29;8930;-77
2022/07/01 14:44:15;;;;;;;;;0.00;0.00;;;;;;;;4928487;29;8951;-76
2022/07/01 14:46:42;;;;;;;;;0.00;0.00;;;;;;;;4922138;29;8872;-76
2022/07/01 14:49:10;;;;;;;;;0.00;0.00;;;;;;;;4929043;29;8887;-75
2022/07/01 14:51:37;;;;;;;;;0.00;0.00;;;;;;;;4927533;29;8910;-75
2022/07/01 14:54:05;;;;;;;;;0.00;0.00;;;;;;;;4925873;29;8895;-76
2022/07/01 14:56:33;;;;;;;;;0.00;0.00;;;;;;;;4927629;29;8860;-77
2022/07/01 14:59:00;;;;;;;;;0.00;0.00;;;;;;;;4912329;29;8883;-76
2022/07/01 15:01:28;;;;;;;;;0.00;0.00;;;;;;;;4928213;29;8820;-76
2022/07/01 15:03:57;;;;;;;;;0.60;0.00;;;;;;;;4928677;29;8911;-74
2022/07/01 15:06:24;;;;;;;;;0.00;0.00;;;;;;;;4928267;29;8875;-74
2022/07/01 15:08:52;;;;;;;;;0.00;0.00;;;;;;;;4927835;29;8887;-75
2022/07/01 15:11:19;;;;;;;;;0.00;0.00;;;;;;;;4928631;29;8899;-75
2022/07/01 15:13:47;;;;;;;;;0.00;0.00;;;;;;;;4933907;28;8885;-76